sensor_id;sensor_type;location;lat;lon;timestamp;temperature;humidity
17565;DHT22;62994;52.126;5.596;2024-01-30T00:00:29;9.00;99.90
17565;DHT22;62994;52.126;5.596;2024-01-30T00:02:56;8.90;99.90
17565;DHT22;62994;52.126;5.596;2024-01-30T00:05:23;8.90;99.90
17565;DHT22;62994;52.126;5.596;2024-01-30T00:07:51;8.90;99.90
17565;DHT22;62994;52.126;5.596;2024-01-30T00:10:18;8.90;99.90
17565;DHT22;62994;52.126;5.596;2024-01-30T00:12:46;8.90;99.90
17565;DHT22;62994;52.126;5.596;2024-01-30T00:15:13;8.90;99.90
17565;DHT22;62994;52.126;5.596;2024-01-30T00:17:40;8.90;99.90
17565;DHT22;62994;52.126;5.596;2024-01-30T00:20:08;8.90;99.90
17565;DHT22;62994;52.126;5.596;2024-01-30T00:22:35;8.90;99.90
17565;DHT22;62994;52.126;5.596;2024-01-30T00:25:03;8.90;99.90
17565;DHT22;62994;52.126;5.596;2024-01-30T00:27:30;8.90;99.90
17565;DHT22;62994;52.126;5.596;2024-01-30T00:29:57;8.90;99.90
17565;DHT22;62994;52.126;5.596;2024-01-30T00:32:24;8.80;99.90
17565;DHT22;62994;52.126;5.596;2024-01-30T00:34:51;8.80;99.90
17565;DHT22;62994;52.126;5.596;2024-01-30T00:37:19;8.80;99.90
17565;DHT22;62994;52.126;5.596;2024-01-30T00:39:46;8.80;99.90
17565;DHT22;62994;52.126;5.596;2024-01-30T00:42:14;8.80;99.90
17565;DHT22;62994;52.126;5.596;2024-01-30T00:44:41;8.80;99.90
17565;DHT22;62994;52.126;5.596;2024-01-30T00:47:08;8.90;99.90
17565;DHT22;62994;52.126;5.596;2024-01-30T00:49:36;8.90;99.90
17565;DHT22;62994;52.126;5.596;2024-01-30T00:52:03;8.90;99.90
17565;DHT22;62994;52.126;5.596;2024-01-30T00:54:31;8.80;99.90
17565;DHT22;62994;52.126;5.596;2024-01-30T00:56:58;8.80;99.90
17565;DHT22;62994;52.126;5.596;2024-01-30T00:59:26;8.80;99.90
17565;DHT22;62994;52.126;5.596;2024-01-30T01:01:53;8.80;99.90
17565;DHT22;62994;52.126;5.596;2024-01-30T01:04:20;8.70;99.90
17565;DHT22;62994;52.126;5.596;2024-01-30T01:06:48;8.70;99.90
17565;DHT22;62994;52.126;5.596;2024-01-30T01:09:14;8.70;99.90
17565;DHT22;62994;52.126;5.596;2024-01-30T01:11:42;8.70;99.90
17565;DHT22;62994;52.126;5.596;2024-01-30T01:14:08;8.60;99.90
17565;DHT22;62994;52.126;5.596;2024-01-30T01:16:37;8.60;99.90
17565;DHT22;62994;52.126;5.596;2024-01-30T01:19:04;8.60;99.90
17565;DHT22;62994;52.126;5.596;2024-01-30T01:21:31;8.60;99.90
17565;DHT22;62994;52.126;5.596;2024-01-30T01:23:58;8.60;99.90
17565;DHT22;62994;52.126;5.596;2024-01-30T01:26:25;8.60;99.90
17565;DHT22;62994;52.126;5.596;2024-01-30T01:28:52;8.60;99.90
17565;DHT22;62994;52.126;5.596;2024-01-30T01:31:19;8.60;99.90
17565;DHT22;62994;52.126;5.596;2024-01-30T01:33:49;8.60;99.90
17565;DHT22;62994;52.126;5.596;2024-01-30T01:36:16;8.50;99.90
17565;DHT22;62994;52.126;5.596;2024-01-30T01:38:43;8.50;99.90
17565;DHT22;62994;52.126;5.596;2024-01-30T01:41:10;8.50;99.90
17565;DHT22;62994;52.126;5.596;2024-01-30T01:43:37;8.50;99.90
17565;DHT22;62994;52.126;5.596;2024-01-30T01:46:05;8.50;99.90
17565;DHT22;62994;52.126;5.596;2024-01-30T01:48:32;8.40;99.90
17565;DHT22;62994;52.126;5.596;2024-01-30T01:51:01;8.40;99.90
17565;DHT22;62994;52.126;5.596;2024-01-30T01:53:28;8.40;99.90
17565;DHT22;62994;52.126;5.596;2024-01-30T01:55:55;8.40;99.90
17565;DHT22;62994;52.126;5.596;2024-01-30T01:58:25;8.40;99.90
17565;DHT22;62994;52.126;5.596;2024-01-30T02:00:54;8.40;99.90
17565;DHT22;62994;52.126;5.596;2024-01-30T02:03:21;8.40;99.90
17565;DHT22;62994;52.126;5.596;2024-01-30T02:05:48;8.40;99.90
17565;DHT22;62994;52.126;5.596;2024-01-30T02:08:17;8.40;99.90
17565;DHT22;62994;52.126;5.596;2024-01-30T02:10:44;8.30;99.90
17565;DHT22;62994;52.126;5.596;2024-01-30T02:13:11;8.30;99.90
17565;DHT22;62994;52.126;5.596;2024-01-30T02:15:38;8.30;99.90
17565;DHT22;62994;52.126;5.596;2024-01-30T02:18:05;8.30;99.90
17565;DHT22;62994;52.126;5.596;2024-01-30T02:20:35;8.30;99.90
17565;DHT22;62994;52.126;5.596;2024-01-30T02:23:04;8.30;99.90
17565;DHT22;62994;52.126;5.596;2024-01-30T02:25:32;8.30;99.90
17565;DHT22;62994;52.126;5.596;2024-01-30T02:27:59;8.30;99.90
17565;DHT22;62994;52.126;5.596;2024-01-30T02:30:26;8.30;99.90
17565;DHT22;62994;52.126;5.596;2024-01-30T02:32:53;8.30;99.90
17565;DHT22;62994;52.126;5.596;2024-01-30T02:35:20;8.30;99.90
17565;DHT22;62994;52.126;5.596;2024-01-30T02:37:47;8.30;99.90
17565;DHT22;62994;52.126;5.596;2024-01-30T02:40:15;8.30;99.90
17565;DHT22;62994;52.126;5.596;2024-01-30T02:42:43;8.30;99.90
17565;DHT22;62994;52.126;5.596;2024-01-30T02:45:11;8.30;99.90
17565;DHT22;62994;52.126;5.596;2024-01-30T02:47:38;8.30;99.90
17565;DHT22;62994;52.126;5.596;2024-01-30T02:50:06;8.30;99.90
17565;DHT22;62994;52.126;5.596;2024-01-30T02:52:33;8.30;99.90
17565;DHT22;62994;52.126;5.596;2024-01-30T02:55:00;8.30;99.90
17565;DHT22;62994;52.126;5.596;2024-01-30T02:57:29;8.30;99.90
17565;DHT22;62994;52.126;5.596;2024-01-30T02:59:56;8.30;99.90
17565;DHT22;62994;52.126;5.596;2024-01-30T03:02:23;8.30;99.90
17565;DHT22;62994;52.126;5.596;2024-01-30T03:04:50;8.30;99.90
17565;DHT22;62994;52.126;5.596;2024-01-30T03:07:17;8.30;99.90
17565;DHT22;62994;52.126;5.596;2024-01-30T03:09:44;8.30;99.90
17565;DHT22;62994;52.126;5.596;2024-01-30T03:12:11;8.30;99.90
17565;DHT22;62994;52.126;5.596;2024-01-30T03:14:39;8.30;99.90
17565;DHT22;62994;52.126;5.596;2024-01-30T03:17:07;8.30;99.90
17565;DHT22;62994;52.126;5.596;2024-01-30T03:19:34;8.30;99.90
17565;DHT22;62994;52.126;5.596;2024-01-30T03:22:00;8.30;99.90
17565;DHT22;62994;52.126;5.596;2024-01-30T03:24:27;8.30;99.90
17565;DHT22;62994;52.126;5.596;2024-01-30T03:26:54;8.30;99.90
17565;DHT22;62994;52.126;5.596;2024-01-30T03:29:21;8.30;99.90
17565;DHT22;62994;52.126;5.596;2024-01-30T03:31:50;8.30;99.90
17565;DHT22;62994;52.126;5.596;2024-01-30T03:34:17;8.30;99.90
17565;DHT22;62994;52.126;5.596;2024-01-30T03:36:43;8.30;99.90
17565;DHT22;62994;52.126;5.596;2024-01-30T03:39:10;8.30;99.90
17565;DHT22;62994;52.126;5.596;2024-01-30T03:41:37;8.30;99.90
17565;DHT22;62994;52.126;5.596;2024-01-30T03:44:05;8.30;99.90
17565;DHT22;62994;52.126;5.596;2024-01-30T03:46:32;8.30;99.90
17565;DHT22;62994;52.126;5.596;2024-01-30T03:49:01;8.30;99.90
17565;DHT22;62994;52.126;5.596;2024-01-30T03:51:27;8.30;99.90
17565;DHT22;62994;52.126;5.596;2024-01-30T03:53:54;8.30;99.90
17565;DHT22;62994;52.126;5.596;2024-01-30T03:56:21;8.30;99.90
17565;DHT22;62994;52.126;5.596;2024-01-30T03:58:50;8.30;99.90
17565;DHT22;62994;52.126;5.596;2024-01-30T04:01:17;8.30;99.90
17565;DHT22;62994;52.126;5.596;2024-01-30T04:03:44;8.30;99.90
17565;DHT22;62994;52.126;5.596;2024-01-30T04:06:12;8.40;99.90
17565;DHT22;62994;52.126;5.596;2024-01-30T04:08:39;8.40;99.90
17565;DHT22;62994;52.126;5.596;2024-01-30T04:11:06;8.30;99.90
17565;DHT22;62994;52.126;5.596;2024-01-30T04:13:32;8.30;99.90
17565;DHT22;62994;52.126;5.596;2024-01-30T04:16:00;8.40;99.90
17565;DHT22;62994;52.126;5.596;2024-01-30T04:18:28;8.40;99.90
17565;DHT22;62994;52.126;5.596;2024-01-30T04:20:55;8.40;99.90
17565;DHT22;62994;52.126;5.596;2024-01-30T04:23:23;8.30;99.90
17565;DHT22;62994;52.126;5.596;2024-01-30T04:25:50;8.30;99.90
17565;DHT22;62994;52.126;5.596;2024-01-30T04:28:17;8.30;99.90
17565;DHT22;62994;52.126;5.596;2024-01-30T04:30:44;8.40;99.90
17565;DHT22;62994;52.126;5.596;2024-01-30T04:33:11;8.40;99.90
17565;DHT22;62994;52.126;5.596;2024-01-30T04:35:38;8.40;99.90
17565;DHT22;62994;52.126;5.596;2024-01-30T04:38:05;8.40;99.90
17565;DHT22;62994;52.126;5.596;2024-01-30T04:40:33;8.40;99.90
17565;DHT22;62994;52.126;5.596;2024-01-30T04:43:00;8.40;99.90
17565;DHT22;62994;52.126;5.596;2024-01-30T04:45:27;8.50;99.90
17565;DHT22;62994;52.126;5.596;2024-01-30T04:47:54;8.40;99.90
17565;DHT22;62994;52.126;5.596;2024-01-30T04:50:21;8.50;99.90
17565;DHT22;62994;52.126;5.596;2024-01-30T04:52:48;8.50;99.90
17565;DHT22;62994;52.126;5.596;2024-01-30T04:55:15;8.50;99.90
17565;DHT22;62994;52.126;5.596;2024-01-30T04:57:44;8.50;99.90
17565;DHT22;62994;52.126;5.596;2024-01-30T05:00:11;8.50;99.90
17565;DHT22;62994;52.126;5.596;2024-01-30T05:02:38;8.50;99.90
17565;DHT22;62994;52.126;5.596;2024-01-30T05:05:05;8.50;99.90
17565;DHT22;62994;52.126;5.596;2024-01-30T05:07:33;8.50;99.90
17565;DHT22;62994;52.126;5.596;2024-01-30T05:10:00;8.50;99.90
17565;DHT22;62994;52.126;5.596;2024-01-30T05:12:28;8.50;99.90
17565;DHT22;62994;52.126;5.596;2024-01-30T05:14:57;8.50;99.90
17565;DHT22;62994;52.126;5.596;2024-01-30T05:17:24;8.50;99.90
17565;DHT22;62994;52.126;5.596;2024-01-30T05:19:51;8.50;99.90
17565;DHT22;62994;52.126;5.596;2024-01-30T05:22:18;8.50;99.90
17565;DHT22;62994;52.126;5.596;2024-01-30T05:24:45;8.50;99.90
17565;DHT22;62994;52.126;5.596;2024-01-30T05:27:12;8.50;99.90
17565;DHT22;62994;52.126;5.596;2024-01-30T05:29:40;8.50;99.90
17565;DHT22;62994;52.126;5.596;2024-01-30T05:32:08;8.60;99.90
17565;DHT22;62994;52.126;5.596;2024-01-30T05:34:36;8.60;99.90
17565;DHT22;62994;52.126;5.596;2024-01-30T05:37:03;8.50;99.90
17565;DHT22;62994;52.126;5.596;2024-01-30T05:39:31;8.60;99.90
17565;DHT22;62994;52.126;5.596;2024-01-30T05:41:58;8.60;99.90
17565;DHT22;62994;52.126;5.596;2024-01-30T05:44:25;8.60;99.90
17565;DHT22;62994;52.126;5.596;2024-01-30T05:46:54;8.60;99.90
17565;DHT22;62994;52.126;5.596;2024-01-30T05:49:22;8.60;99.90
17565;DHT22;62994;52.126;5.596;2024-01-30T05:51:49;8.60;99.90
17565;DHT22;62994;52.126;5.596;2024-01-30T05:54:16;8.70;99.90
17565;DHT22;62994;52.126;5.596;2024-01-30T05:56:43;8.70;99.90
17565;DHT22;62994;52.126;5.596;2024-01-30T05:59:10;8.70;99.90
17565;DHT22;62994;52.126;5.596;2024-01-30T06:01:37;8.70;99.90
17565;DHT22;62994;52.126;5.596;2024-01-30T06:04:04;8.70;99.90
17565;DHT22;62994;52.126;5.596;2024-01-30T06:06:32;8.70;99.90
17565;DHT22;62994;52.126;5.596;2024-01-30T06:09:00;8.70;99.90
17565;DHT22;62994;52.126;5.596;2024-01-30T06:11:27;8.70;99.90
17565;DHT22;62994;52.126;5.596;2024-01-30T06:13:54;8.70;99.90
17565;DHT22;62994;52.126;5.596;2024-01-30T06:16:21;8.70;99.90
17565;DHT22;62994;52.126;5.596;2024-01-30T06:18:48;8.70;99.90
17565;DHT22;62994;52.126;5.596;2024-01-30T06:21:15;8.80;99.90
17565;DHT22;62994;52.126;5.596;2024-01-30T06:23:43;8.70;99.90
17565;DHT22;62994;52.126;5.596;2024-01-30T06:26:10;8.80;99.90
17565;DHT22;62994;52.126;5.596;2024-01-30T06:28:37;8.80;99.90
17565;DHT22;62994;52.126;5.596;2024-01-30T06:31:04;8.80;99.90
17565;DHT22;62994;52.126;5.596;2024-01-30T06:33:31;8.80;99.90
17565;DHT22;62994;52.126;5.596;2024-01-30T06:35:59;8.80;99.90
17565;DHT22;62994;52.126;5.596;2024-01-30T06:38:26;8.80;99.90
17565;DHT22;62994;52.126;5.596;2024-01-30T06:40:54;8.80;99.90
17565;DHT22;62994;52.126;5.596;2024-01-30T06:43:22;8.80;99.90
17565;DHT22;62994;52.126;5.596;2024-01-30T06:45:49;8.80;99.90
17565;DHT22;62994;52.126;5.596;2024-01-30T06:48:17;8.80;99.90
17565;DHT22;62994;52.126;5.596;2024-01-30T06:50:44;8.80;99.90
17565;DHT22;62994;52.126;5.596;2024-01-30T06:53:11;8.80;99.90
17565;DHT22;62994;52.126;5.596;2024-01-30T06:55:39;8.90;99.90
17565;DHT22;62994;52.126;5.596;2024-01-30T06:58:07;8.90;99.90
17565;DHT22;62994;52.126;5.596;2024-01-30T07:00:34;8.90;99.90
17565;DHT22;62994;52.126;5.596;2024-01-30T07:03:01;8.90;99.90
17565;DHT22;62994;52.126;5.596;2024-01-30T07:05:31;8.90;99.90
17565;DHT22;62994;52.126;5.596;2024-01-30T07:07:58;8.90;99.90
17565;DHT22;62994;52.126;5.596;2024-01-30T07:10:25;8.90;99.90
17565;DHT22;62994;52.126;5.596;2024-01-30T07:12:52;8.90;99.90
17565;DHT22;62994;52.126;5.596;2024-01-30T07:15:21;8.90;99.90
17565;DHT22;62994;52.126;5.596;2024-01-30T07:17:48;9.00;99.90
17565;DHT22;62994;52.126;5.596;2024-01-30T07:20:17;8.90;99.90
17565;DHT22;62994;52.126;5.596;2024-01-30T07:22:46;9.00;99.90
17565;DHT22;62994;52.126;5.596;2024-01-30T07:25:16;9.00;99.90
17565;DHT22;62994;52.126;5.596;2024-01-30T07:27:43;9.00;99.90
17565;DHT22;62994;52.126;5.596;2024-01-30T07:30:13;9.00;99.90
17565;DHT22;62994;52.126;5.596;2024-01-30T07:32:43;9.00;99.90
17565;DHT22;62994;52.126;5.596;2024-01-30T07:35:11;9.00;99.90
17565;DHT22;62994;52.126;5.596;2024-01-30T07:37:38;9.10;99.90
17565;DHT22;62994;52.126;5.596;2024-01-30T07:40:06;9.00;99.90
17565;DHT22;62994;52.126;5.596;2024-01-30T07:42:37;9.10;99.90
17565;DHT22;62994;52.126;5.596;2024-01-30T07:45:05;9.10;99.90
17565;DHT22;62994;52.126;5.596;2024-01-30T07:47:32;9.10;99.90
17565;DHT22;62994;52.126;5.596;2024-01-30T07:50:00;9.10;99.90
17565;DHT22;62994;52.126;5.596;2024-01-30T07:52:28;9.10;99.90
17565;DHT22;62994;52.126;5.596;2024-01-30T07:54:55;9.10;99.90
17565;DHT22;62994;52.126;5.596;2024-01-30T07:57:22;9.10;99.90
17565;DHT22;62994;52.126;5.596;2024-01-30T07:59:49;9.10;99.90
17565;DHT22;62994;52.126;5.596;2024-01-30T08:02:16;9.10;99.90
17565;DHT22;62994;52.126;5.596;2024-01-30T08:04:43;9.10;99.90
17565;DHT22;62994;52.126;5.596;2024-01-30T08:07:18;9.10;99.90
17565;DHT22;62994;52.126;5.596;2024-01-30T08:09:47;9.20;99.90
17565;DHT22;62994;52.126;5.596;2024-01-30T08:12:14;9.20;99.90
17565;DHT22;62994;52.126;5.596;2024-01-30T08:14:41;9.20;99.90
17565;DHT22;62994;52.126;5.596;2024-01-30T08:17:08;9.30;99.90
17565;DHT22;62994;52.126;5.596;2024-01-30T08:19:35;9.30;99.90
17565;DHT22;62994;52.126;5.596;2024-01-30T08:22:05;9.40;99.90
17565;DHT22;62994;52.126;5.596;2024-01-30T08:24:34;9.30;99.90
17565;DHT22;62994;52.126;5.596;2024-01-30T08:27:01;9.40;99.90
17565;DHT22;62994;52.126;5.596;2024-01-30T08:29:28;9.40;99.90
17565;DHT22;62994;52.126;5.596;2024-01-30T08:31:56;9.40;99.90
17565;DHT22;62994;52.126;5.596;2024-01-30T08:34:24;9.50;99.90
17565;DHT22;62994;52.126;5.596;2024-01-30T08:36:51;9.50;99.90
17565;DHT22;62994;52.126;5.596;2024-01-30T08:39:18;9.60;99.90
17565;DHT22;62994;52.126;5.596;2024-01-30T08:41:47;9.60;99.90
17565;DHT22;62994;52.126;5.596;2024-01-30T08:44:14;9.60;99.90
17565;DHT22;62994;52.126;5.596;2024-01-30T08:46:41;9.70;99.90
17565;DHT22;62994;52.126;5.596;2024-01-30T08:49:08;9.60;99.90
17565;DHT22;62994;52.126;5.596;2024-01-30T08:51:35;9.70;99.90
17565;DHT22;62994;52.126;5.596;2024-01-30T08:54:02;9.80;99.90
17565;DHT22;62994;52.126;5.596;2024-01-30T08:56:29;9.70;99.90
17565;DHT22;62994;52.126;5.596;2024-01-30T08:58:57;9.80;99.90
17565;DHT22;62994;52.126;5.596;2024-01-30T09:01:25;9.80;99.90
17565;DHT22;62994;52.126;5.596;2024-01-30T09:03:52;9.90;99.90
17565;DHT22;62994;52.126;5.596;2024-01-30T09:06:19;9.90;99.90
17565;DHT22;62994;52.126;5.596;2024-01-30T09:08:46;9.90;99.90
17565;DHT22;62994;52.126;5.596;2024-01-30T09:11:14;9.90;99.90
17565;DHT22;62994;52.126;5.596;2024-01-30T09:13:41;10.00;99.90
17565;DHT22;62994;52.126;5.596;2024-01-30T09:16:10;10.00;99.90
17565;DHT22;62994;52.126;5.596;2024-01-30T09:18:37;10.00;99.90
17565;DHT22;62994;52.126;5.596;2024-01-30T09:21:05;10.00;99.90
17565;DHT22;62994;52.126;5.596;2024-01-30T09:23:32;10.10;99.90
17565;DHT22;62994;52.126;5.596;2024-01-30T09:25:59;10.10;99.90
17565;DHT22;62994;52.126;5.596;2024-01-30T09:28:26;10.20;99.90
17565;DHT22;62994;52.126;5.596;2024-01-30T09:30:53;10.30;99.90
17565;DHT22;62994;52.126;5.596;2024-01-30T09:33:21;10.20;99.90
17565;DHT22;62994;52.126;5.596;2024-01-30T09:35:48;10.20;99.90
17565;DHT22;62994;52.126;5.596;2024-01-30T09:38:16;10.30;99.90
17565;DHT22;62994;52.126;5.596;2024-01-30T09:40:44;10.30;99.90
17565;DHT22;62994;52.126;5.596;2024-01-30T09:43:17;10.30;99.90
17565;DHT22;62994;52.126;5.596;2024-01-30T09:45:50;10.40;99.90
17565;DHT22;62994;52.126;5.596;2024-01-30T09:48:17;10.40;99.90
17565;DHT22;62994;52.126;5.596;2024-01-30T09:50:46;10.40;99.90
17565;DHT22;62994;52.126;5.596;2024-01-30T09:53:13;10.50;99.90
17565;DHT22;62994;52.126;5.596;2024-01-30T09:55:43;10.50;99.90
17565;DHT22;62994;52.126;5.596;2024-01-30T09:58:11;10.50;99.90
17565;DHT22;62994;52.126;5.596;2024-01-30T10:00:38;10.60;99.90
17565;DHT22;62994;52.126;5.596;2024-01-30T10:03:05;10.60;99.90
17565;DHT22;62994;52.126;5.596;2024-01-30T10:05:33;10.60;99.90
17565;DHT22;62994;52.126;5.596;2024-01-30T10:08:05;10.60;99.90
17565;DHT22;62994;52.126;5.596;2024-01-30T10:10:33;10.60;99.90
17565;DHT22;62994;52.126;5.596;2024-01-30T10:13:01;10.70;99.90
17565;DHT22;62994;52.126;5.596;2024-01-30T10:15:28;10.70;99.90
17565;DHT22;62994;52.126;5.596;2024-01-30T10:17:55;10.70;99.90
17565;DHT22;62994;52.126;5.596;2024-01-30T10:20:24;10.80;99.90
17565;DHT22;62994;52.126;5.596;2024-01-30T10:22:51;10.80;99.90
17565;DHT22;62994;52.126;5.596;2024-01-30T10:25:21;10.80;99.90
17565;DHT22;62994;52.126;5.596;2024-01-30T10:27:52;10.90;99.90
17565;DHT22;62994;52.126;5.596;2024-01-30T10:30:20;10.90;99.90
17565;DHT22;62994;52.126;5.596;2024-01-30T10:32:47;10.90;99.90
17565;DHT22;62994;52.126;5.596;2024-01-30T10:35:15;11.00;99.90
17565;DHT22;62994;52.126;5.596;2024-01-30T10:37:43;11.00;99.90
17565;DHT22;62994;52.126;5.596;2024-01-30T10:40:13;11.10;99.90
17565;DHT22;62994;52.126;5.596;2024-01-30T10:42:44;11.10;99.90
17565;DHT22;62994;52.126;5.596;2024-01-30T10:45:14;11.20;99.90
17565;DHT22;62994;52.126;5.596;2024-01-30T10:47:45;11.20;99.90
17565;DHT22;62994;52.126;5.596;2024-01-30T10:50:15;11.20;99.90
17565;DHT22;62994;52.126;5.596;2024-01-30T10:52:43;11.30;99.90
17565;DHT22;62994;52.126;5.596;2024-01-30T10:55:10;11.30;99.90
17565;DHT22;62994;52.126;5.596;2024-01-30T10:57:38;11.40;99.90
17565;DHT22;62994;52.126;5.596;2024-01-30T11:00:08;11.40;99.90
17565;DHT22;62994;52.126;5.596;2024-01-30T11:02:37;11.50;99.90
17565;DHT22;62994;52.126;5.596;2024-01-30T11:05:05;11.40;99.90
17565;DHT22;62994;52.126;5.596;2024-01-30T11:07:36;11.50;99.90
17565;DHT22;62994;52.126;5.596;2024-01-30T11:10:06;11.50;99.90
17565;DHT22;62994;52.126;5.596;2024-01-30T11:12:39;11.50;99.90
17565;DHT22;62994;52.126;5.596;2024-01-30T11:15:12;11.50;99.90
17565;DHT22;62994;52.126;5.596;2024-01-30T11:17:42;11.60;99.90
17565;DHT22;62994;52.126;5.596;2024-01-30T11:20:10;11.60;99.90
17565;DHT22;62994;52.126;5.596;2024-01-30T11:22:41;11.60;99.90
17565;DHT22;62994;52.126;5.596;2024-01-30T11:25:12;11.70;99.90
17565;DHT22;62994;52.126;5.596;2024-01-30T11:27:39;11.70;99.90
17565;DHT22;62994;52.126;5.596;2024-01-30T11:30:10;11.70;99.90
17565;DHT22;62994;52.126;5.596;2024-01-30T11:32:39;11.70;99.90
17565;DHT22;62994;52.126;5.596;2024-01-30T11:35:06;11.70;99.90
17565;DHT22;62994;52.126;5.596;2024-01-30T11:37:37;11.70;99.90
17565;DHT22;62994;52.126;5.596;2024-01-30T11:40:05;11.70;99.90
17565;DHT22;62994;52.126;5.596;2024-01-30T11:42:34;11.80;99.90
17565;DHT22;62994;52.126;5.596;2024-01-30T11:45:05;11.80;99.90
17565;DHT22;62994;52.126;5.596;2024-01-30T11:47:36;11.80;99.90
17565;DHT22;62994;52.126;5.596;2024-01-30T11:50:04;11.80;99.90
17565;DHT22;62994;52.126;5.596;2024-01-30T11:52:32;11.80;99.90
17565;DHT22;62994;52.126;5.596;2024-01-30T11:55:00;11.70;99.90
17565;DHT22;62994;52.126;5.596;2024-01-30T11:57:28;11.70;99.90
17565;DHT22;62994;52.126;5.596;2024-01-30T11:59:55;11.60;99.90
17565;DHT22;62994;52.126;5.596;2024-01-30T12:02:22;11.60;99.90
17565;DHT22;62994;52.126;5.596;2024-01-30T12:04:50;11.60;99.90
17565;DHT22;62994;52.126;5.596;2024-01-30T12:07:17;11.70;99.90
17565;DHT22;62994;52.126;5.596;2024-01-30T12:09:52;11.60;99.90
17565;DHT22;62994;52.126;5.596;2024-01-30T12:12:21;11.60;99.90
17565;DHT22;62994;52.126;5.596;2024-01-30T12:14:48;11.60;99.90
17565;DHT22;62994;52.126;5.596;2024-01-30T12:17:24;11.50;99.90
17565;DHT22;62994;52.126;5.596;2024-01-30T12:20:02;11.60;99.90
17565;DHT22;62994;52.126;5.596;2024-01-30T12:22:30;11.60;99.90
17565;DHT22;62994;52.126;5.596;2024-01-30T12:24:57;11.60;99.90
17565;DHT22;62994;52.126;5.596;2024-01-30T12:27:24;11.60;99.90
17565;DHT22;62994;52.126;5.596;2024-01-30T12:29:56;11.70;99.90
17565;DHT22;62994;52.126;5.596;2024-01-30T12:32:23;11.80;99.90
17565;DHT22;62994;52.126;5.596;2024-01-30T12:34:54;11.80;99.90
17565;DHT22;62994;52.126;5.596;2024-01-30T12:37:22;11.80;99.90
17565;DHT22;62994;52.126;5.596;2024-01-30T12:39:51;11.80;99.90
17565;DHT22;62994;52.126;5.596;2024-01-30T12:42:19;11.70;99.90
17565;DHT22;62994;52.126;5.596;2024-01-30T12:44:47;11.60;99.90
17565;DHT22;62994;52.126;5.596;2024-01-30T12:47:14;11.60;99.90
17565;DHT22;62994;52.126;5.596;2024-01-30T12:49:42;11.50;99.90
17565;DHT22;62994;52.126;5.596;2024-01-30T12:52:12;11.50;99.90
17565;DHT22;62994;52.126;5.596;2024-01-30T12:54:40;11.50;99.90
17565;DHT22;62994;52.126;5.596;2024-01-30T12:57:07;11.50;99.90
17565;DHT22;62994;52.126;5.596;2024-01-30T12:59:34;11.50;99.90
17565;DHT22;62994;52.126;5.596;2024-01-30T13:02:01;11.40;99.90
17565;DHT22;62994;52.126;5.596;2024-01-30T13:04:29;11.40;99.90
17565;DHT22;62994;52.126;5.596;2024-01-30T13:06:56;11.30;99.90
17565;DHT22;62994;52.126;5.596;2024-01-30T13:09:25;11.30;99.90
17565;DHT22;62994;52.126;5.596;2024-01-30T13:11:51;11.30;99.90
17565;DHT22;62994;52.126;5.596;2024-01-30T13:14:19;11.20;99.90
17565;DHT22;62994;52.126;5.596;2024-01-30T13:16:46;11.20;99.90
17565;DHT22;62994;52.126;5.596;2024-01-30T13:19:13;11.10;99.90
17565;DHT22;62994;52.126;5.596;2024-01-30T13:21:40;11.00;99.90
17565;DHT22;62994;52.126;5.596;2024-01-30T13:24:07;11.00;99.90
17565;DHT22;62994;52.126;5.596;2024-01-30T13:26:35;11.00;99.90
17565;DHT22;62994;52.126;5.596;2024-01-30T13:29:03;11.10;99.90
17565;DHT22;62994;52.126;5.596;2024-01-30T13:31:30;11.10;99.90
17565;DHT22;62994;52.126;5.596;2024-01-30T13:33:57;11.10;99.90
17565;DHT22;62994;52.126;5.596;2024-01-30T13:36:24;11.00;99.90
17565;DHT22;62994;52.126;5.596;2024-01-30T13:38:51;11.00;99.90
17565;DHT22;62994;52.126;5.596;2024-01-30T13:41:18;11.00;99.90
17565;DHT22;62994;52.126;5.596;2024-01-30T13:43:48;11.00;99.90
17565;DHT22;62994;52.126;5.596;2024-01-30T13:46:15;11.10;99.90
17565;DHT22;62994;52.126;5.596;2024-01-30T13:48:42;11.10;99.90
17565;DHT22;62994;52.126;5.596;2024-01-30T13:51:09;11.20;99.90
17565;DHT22;62994;52.126;5.596;2024-01-30T13:53:38;11.10;99.90
17565;DHT22;62994;52.126;5.596;2024-01-30T13:56:06;11.10;99.90
17565;DHT22;62994;52.126;5.596;2024-01-30T13:58:33;11.10;99.90
17565;DHT22;62994;52.126;5.596;2024-01-30T14:01:03;10.90;99.90
17565;DHT22;62994;52.126;5.596;2024-01-30T14:03:30;10.90;99.90
17565;DHT22;62994;52.126;5.596;2024-01-30T14:05:57;10.90;99.90
17565;DHT22;62994;52.126;5.596;2024-01-30T14:08:25;10.80;99.90
17565;DHT22;62994;52.126;5.596;2024-01-30T14:10:53;10.70;99.90
17565;DHT22;62994;52.126;5.596;2024-01-30T14:13:21;10.70;99.90
17565;DHT22;62994;52.126;5.596;2024-01-30T14:15:55;10.70;99.90
17565;DHT22;62994;52.126;5.596;2024-01-30T14:18:23;10.70;99.90
17565;DHT22;62994;52.126;5.596;2024-01-30T14:20:51;10.70;99.90
17565;DHT22;62994;52.126;5.596;2024-01-30T14:23:18;10.70;99.90
17565;DHT22;62994;52.126;5.596;2024-01-30T14:25:45;10.60;99.90
17565;DHT22;62994;52.126;5.596;2024-01-30T14:28:18;10.60;99.90
17565;DHT22;62994;52.126;5.596;2024-01-30T14:30:45;10.60;99.90
17565;DHT22;62994;52.126;5.596;2024-01-30T14:33:12;10.60;99.90
17565;DHT22;62994;52.126;5.596;2024-01-30T14:35:41;10.70;99.90
17565;DHT22;62994;52.126;5.596;2024-01-30T14:38:08;10.70;99.90
17565;DHT22;62994;52.126;5.596;2024-01-30T14:40:35;10.70;99.90
17565;DHT22;62994;52.126;5.596;2024-01-30T14:43:02;10.70;99.90
17565;DHT22;62994;52.126;5.596;2024-01-30T14:45:29;10.60;99.90
17565;DHT22;62994;52.126;5.596;2024-01-30T14:47:57;10.60;99.90
17565;DHT22;62994;52.126;5.596;2024-01-30T14:50:25;10.60;99.90
17565;DHT22;62994;52.126;5.596;2024-01-30T14:52:53;10.60;99.90
17565;DHT22;62994;52.126;5.596;2024-01-30T14:55:20;10.60;99.90
17565;DHT22;62994;52.126;5.596;2024-01-30T14:57:48;10.60;99.90
17565;DHT22;62994;52.126;5.596;2024-01-30T15:00:15;10.60;99.90
17565;DHT22;62994;52.126;5.596;2024-01-30T15:02:43;10.60;99.90
17565;DHT22;62994;52.126;5.596;2024-01-30T15:05:10;10.60;99.90
17565;DHT22;62994;52.126;5.596;2024-01-30T15:07:37;10.50;99.90
17565;DHT22;62994;52.126;5.596;2024-01-30T15:10:07;10.50;99.90
17565;DHT22;62994;52.126;5.596;2024-01-30T15:12:34;10.40;99.90
17565;DHT22;62994;52.126;5.596;2024-01-30T15:15:01;10.40;99.90
17565;DHT22;62994;52.126;5.596;2024-01-30T15:17:28;10.40;99.90
17565;DHT22;62994;52.126;5.596;2024-01-30T15:19:55;10.30;99.90
17565;DHT22;62994;52.126;5.596;2024-01-30T15:22:24;10.30;99.90
17565;DHT22;62994;52.126;5.596;2024-01-30T15:24:51;10.30;99.90
17565;DHT22;62994;52.126;5.596;2024-01-30T15:27:19;10.30;99.90
17565;DHT22;62994;52.126;5.596;2024-01-30T15:29:46;10.30;99.90
17565;DHT22;62994;52.126;5.596;2024-01-30T15:32:14;10.20;99.90
17565;DHT22;62994;52.126;5.596;2024-01-30T15:34:41;10.20;99.90
17565;DHT22;62994;52.126;5.596;2024-01-30T15:37:08;10.10;99.90
17565;DHT22;62994;52.126;5.596;2024-01-30T15:39:35;10.10;99.90
17565;DHT22;62994;52.126;5.596;2024-01-30T15:42:02;10.10;99.90